Time;durP1;ratioP1;P1;durP2;ratioP2;P2;SDS_P1;SDS_P2;PMS_P1;PMS_P2;Temp;Humidity;BMP_temperature;BMP_pressure;BME280_temperature;BME280_humidity;BME280_pressure;Samples;Min_cycle;Max_cycle;Signal;HPM_P1;HPM_P2
2023/06/21 00:01:38;;;;;;;10.57;8.90;;;19.30;99.90;;;;;;2615491;39;20781;-74
2023/06/21 00:07:26;;;;;;;9.53;8.50;;;19.30;99.90;;;;;;2614619;54;20438;-73
2023/06/21 00:13:13;;;;;;;16.03;8.00;;;19.20;99.90;;;;;;2615421;54;20261;-74
2023/06/21 00:19:01;;;;;;;8.93;6.47;;;19.00;99.90;;;;;;2615171;54;20146;-73
2023/06/21 00:24:49;;;;;;;6.83;5.63;;;19.00;99.90;;;;;;2615018;54;20480;-73
2023/06/21 00:30:37;;;;;;;7.13;6.43;;;18.90;99.90;;;;;;2614371;39;20477;-74
2023/06/21 00:36:24;;;;;;;6.50;5.60;;;18.70;99.90;;;;;;2614322;54;20147;-73
2023/06/21 00:42:12;;;;;;;7.20;5.43;;;18.80;99.90;;;;;;2614233;54;20247;-74
2023/06/21 00:45:25;;;;;;;6.10;5.50;;;18.70;99.90;;;;;;2614738;54;20380;-73
2023/06/21 00:47:51;;;;;;;6.90;5.73;;;18.70;99.90;;;;;;2614684;54;20147;-74
2023/06/21 00:53:40;;;;;;;6.43;5.80;;;18.60;99.90;;;;;;2612595;54;20411;-72
2023/06/21 00:59:28;;;;;;;6.20;5.60;;;18.50;99.90;;;;;;2614499;54;20367;-74
2023/06/21 01:05:16;;;;;;;8.10;6.37;;;18.50;99.90;;;;;;2613415;54;21140;-68
2023/06/21 01:17:33;;;;;;;7.90;6.93;;;18.50;99.90;;;;;;2613480;54;20403;-68
2023/06/21 01:23:38;;;;;;;7.50;6.10;;;18.50;99.90;;;;;;2613261;54;20434;-69
2023/06/21 01:29:33;;;;;;;6.83;5.47;;;18.50;99.90;;;;;;2614767;54;20388;-68
2023/06/21 01:35:21;;;;;;;7.13;5.70;;;18.30;99.90;;;;;;2614032;39;20744;-69
2023/06/21 01:41:10;;;;;;;6.77;6.13;;;18.30;99.90;;;;;;2613566;54;20391;-68
2023/06/21 01:50:22;;;;;;;6.10;5.50;;;18.40;99.90;;;;;;2613741;54;20439;-69
2023/06/21 01:56:14;;;;;;;6.40;5.70;;;18.30;99.90;;;;;;2614727;54;20391;-68
2023/06/21 02:02:05;;;;;;;8.30;6.40;;;18.20;99.90;;;;;;2614424;54;20925;-67
2023/06/21 02:07:54;;;;;;;7.07;6.27;;;18.30;99.90;;;;;;2614915;54;20387;-69
2023/06/21 02:13:42;;;;;;;6.77;6.10;;;18.30;99.90;;;;;;2615106;54;20388;-69
2023/06/21 02:19:29;;;;;;;8.00;7.20;;;18.10;99.90;;;;;;2613858;54;20651;-68
2023/06/21 02:25:17;;;;;;;8.07;7.27;;;18.00;99.90;;;;;;2615116;39;20561;-69
2023/06/21 02:31:05;;;;;;;7.97;7.17;;;18.00;99.90;;;;;;2614782;54;20620;-70
2023/06/21 02:36:55;;;;;;;9.43;8.30;;;18.10;99.90;;;;;;2615186;54;20138;-70
2023/06/21 02:42:43;;;;;;;9.90;7.83;;;18.00;99.90;;;;;;2613361;54;21033;-76
2023/06/21 02:45:43;;;;;;;9.07;8.13;;;18.00;99.90;;;;;;2614628;54;20953;-75
2023/06/21 02:48:08;;;;;;;9.97;8.30;;;18.10;99.90;;;;;;2614782;54;20147;-76
2023/06/21 02:53:56;;;;;;;9.73;7.53;;;17.90;99.90;;;;;;2613463;54;20166;-77
2023/06/21 02:59:44;;;;;;;8.37;7.40;;;17.90;99.90;;;;;;2613591;54;20142;-76
2023/06/21 03:05:37;;;;;;;9.00;8.20;;;17.90;99.90;;;;;;2613989;54;20126;-76
2023/06/21 03:11:24;;;;;;;8.47;7.67;;;17.80;99.90;;;;;;2613836;54;21708;-76
2023/06/21 03:17:12;;;;;;;8.20;7.40;;;17.80;99.90;;;;;;2612795;54;20166;-76
2023/06/21 03:23:00;;;;;;;9.47;8.23;;;17.80;99.90;;;;;;2615891;31;20594;-76
2023/06/21 03:28:48;;;;;;;10.13;8.10;;;17.80;99.90;;;;;;2614978;54;20407;-76
2023/06/21 03:34:36;;;;;;;12.90;8.97;;;17.90;99.90;;;;;;2613683;54;20427;-77
2023/06/21 03:40:24;;;;;;;8.40;7.33;;;17.80;99.90;;;;;;2613537;54;20174;-76
2023/06/21 03:56:36;;;;;;;8.70;7.63;;;17.80;99.90;;;;;;2612011;54;20411;-76
2023/06/21 04:02:24;;;;;;;8.03;7.23;;;18.00;99.90;;;;;;2612738;54;20151;-76
2023/06/21 04:08:11;;;;;;;11.50;8.87;;;18.10;99.90;;;;;;2612390;39;20901;-75
2023/06/21 04:13:58;;;;;;;9.93;8.77;;;18.30;99.90;;;;;;2612933;54;20148;-76
2023/06/21 04:19:45;;;;;;;10.07;9.10;;;18.50;99.90;;;;;;2611028;54;20184;-76
2023/06/21 04:25:32;;;;;;;9.73;8.83;;;18.70;99.90;;;;;;2615273;54;20165;-76
2023/06/21 04:31:20;;;;;;;10.47;9.00;;;18.80;99.90;;;;;;2612015;54;20122;-75
2023/06/21 04:37:08;;;;;;;9.27;7.63;;;19.10;99.90;;;;;;2614705;54;20649;-76
2023/06/21 04:42:57;;;;;;;11.60;9.63;;;19.50;99.90;;;;;;2614918;54;20260;-76
2023/06/21 04:49:04;;;;;;;10.60;8.67;;;19.50;99.90;;;;;;2611617;54;20414;-75
2023/06/21 04:54:51;;;;;;;10.60;8.60;;;20.10;99.90;;;;;;2612318;54;20140;-76
2023/06/21 05:00:38;;;;;;;8.90;7.93;;;20.40;99.90;;;;;;2611394;54;20127;-76
2023/06/21 05:06:25;;;;;;;9.50;8.60;;;20.40;99.90;;;;;;2608548;54;20416;-75
2023/06/21 05:12:12;;;;;;;9.77;8.93;;;20.90;99.90;;;;;;2612536;54;20142;-75
2023/06/21 05:18:00;;;;;;;11.27;10.27;;;21.30;99.90;;;;;;2612619;39;20525;-75
2023/06/21 05:23:47;;;;;;;10.43;9.53;;;21.70;99.90;;;;;;2611800;54;20783;-80
2023/06/21 05:29:35;;;;;;;10.80;9.90;;;21.70;99.90;;;;;;2613835;46;20165;-74
2023/06/21 05:35:23;;;;;;;11.40;10.40;;;22.30;99.90;;;;;;2613595;54;20139;-74
2023/06/21 05:41:10;;;;;;;11.87;10.87;;;22.60;99.90;;;;;;2611191;54;20155;-74
2023/06/21 05:50:20;;;;;;;12.10;11.20;;;22.40;99.90;;;;;;2614877;54;20378;-73
2023/06/21 05:56:08;;;;;;;16.17;12.73;;;22.50;99.90;;;;;;2614333;54;20123;-73
2023/06/21 06:01:56;;;;;;;13.40;12.50;;;23.00;99.90;;;;;;2604970;54;20138;-74
2023/06/21 06:07:43;;;;;;;14.00;12.50;;;22.90;99.90;;;;;;2612254;39;20612;-74
2023/06/21 06:13:31;;;;;;;14.37;13.30;;;23.10;99.90;;;;;;2613252;54;20198;-74
2023/06/21 06:19:19;;;;;;;14.40;13.20;;;23.20;99.90;;;;;;2609062;54;20161;-74
2023/06/21 06:25:06;;;;;;;13.80;12.90;;;23.40;99.90;;;;;;2613122;54;20812;-73
2023/06/21 06:30:54;;;;;;;15.70;14.17;;;23.60;99.90;;;;;;2612977;54;20175;-73
2023/06/21 06:36:42;;;;;;;16.13;14.93;;;23.10;99.90;;;;;;2612340;54;20154;-74
2023/06/21 06:42:30;;;;;;;15.60;14.40;;;24.30;99.90;;;;;;2613750;54;20150;-74
2023/06/21 06:48:26;;;;;;;15.60;14.40;;;23.40;99.90;;;;;;2608331;47;20146;-73
2023/06/21 06:54:13;;;;;;;16.10;14.80;;;23.60;99.90;;;;;;2611296;54;20155;-73
2023/06/21 07:00:18;;;;;;;15.43;14.20;;;24.30;99.90;;;;;;2559944;36;5010082;-73
2023/06/21 07:06:21;;;;;;;16.20;15.00;;;24.60;99.90;;;;;;2611201;54;20130;-73
2023/06/21 07:09:15;;;;;;;17.43;16.07;;;24.10;99.90;;;;;;2607022;54;20419;-74
2023/06/21 07:15:02;;;;;;;18.57;17.20;;;24.60;99.90;;;;;;2605635;54;20387;-74
2023/06/21 07:24:12;;;;;;;16.57;15.47;;;25.00;99.90;;;;;;2611581;54;20359;-73
2023/06/21 07:29:59;;;;;;;16.87;15.80;;;24.30;99.90;;;;;;2609191;54;20367;-74
2023/06/21 07:35:47;;;;;;;16.17;15.07;;;24.20;99.90;;;;;;2612192;54;20673;-73
2023/06/21 07:41:34;;;;;;;16.90;15.80;;;23.70;99.90;;;;;;2612171;46;20146;-74
2023/06/21 07:50:44;;;;;;;17.30;16.00;;;24.90;99.90;;;;;;2609962;54;20528;-74
2023/06/21 07:56:32;;;;;;;17.80;16.40;;;24.30;99.90;;;;;;2610563;54;20158;-74
2023/06/21 08:02:20;;;;;;;19.03;17.60;;;23.70;99.90;;;;;;2608851;54;20154;-74
2023/06/21 08:08:08;;;;;;;17.77;16.30;;;23.20;99.90;;;;;;2612913;54;20295;-74
2023/06/21 08:13:56;;;;;;;17.70;16.40;;;24.40;99.90;;;;;;2613559;39;20798;-73
2023/06/21 08:16:59;;;;;;;19.10;17.67;;;25.40;99.90;;;;;;2611979;47;20427;-74
2023/06/21 08:19:25;;;;;;;18.37;17.07;;;25.80;99.90;;;;;;2608044;46;20186;-74
2023/06/21 08:25:13;;;;;;;17.53;16.43;;;26.50;99.90;;;;;;2609907;54;20343;-74
2023/06/21 08:31:00;;;;;;;16.67;15.60;;;26.60;99.90;;;;;;2612009;54;20238;-74
2023/06/21 08:36:48;;;;;;;17.20;16.10;;;26.90;99.90;;;;;;2609705;54;20277;-74
2023/06/21 08:42:36;;;;;;;17.40;16.20;;;25.10;99.90;;;;;;2610355;54;20157;-74
2023/06/21 08:48:28;;;;;;;20.33;18.90;;;25.40;99.90;;;;;;2610165;54;20186;-74
2023/06/21 08:54:22;;;;;;;18.07;17.07;;;25.20;99.90;;;;;;2611707;54;20532;-74
2023/06/21 09:00:12;;;;;;;19.03;17.93;;;26.60;99.90;;;;;;2613384;54;20463;-74
2023/06/21 09:06:09;;;;;;;19.63;18.37;;;26.00;99.90;;;;;;2610203;54;20447;-74
2023/06/21 09:11:56;;;;;;;19.47;18.27;;;24.80;99.90;;;;;;2613609;54;20420;-74
2023/06/21 09:17:45;;;;;;;22.50;20.50;;;24.80;99.90;;;;;;2613315;39;20536;-74
2023/06/21 09:23:32;;;;;;;21.47;19.97;;;24.00;99.90;;;;;;2614082;54;20359;-73
2023/06/21 09:29:20;;;;;;;19.80;18.23;;;24.20;99.90;;;;;;2614541;54;20150;-74
2023/06/21 09:35:09;;;;;;;17.57;16.27;;;24.60;99.90;;;;;;2611520;54;20127;-73
2023/06/21 09:40:57;;;;;;;17.87;16.77;;;25.90;99.90;;;;;;2613164;54;20527;-74
2023/06/21 09:50:42;;;;;;;19.60;18.50;;;25.30;99.90;;;;;;2613622;54;20459;-73
2023/06/21 09:56:33;;;;;;;19.47;18.17;;;26.10;99.90;;;;;;2613896;54;20524;-74
2023/06/21 10:02:21;;;;;;;18.63;17.50;;;27.10;99.90;;;;;;2609630;54;20544;-74
2023/06/21 10:08:09;;;;;;;18.30;17.20;;;27.30;99.90;;;;;;2610292;54;20471;-74
2023/06/21 10:13:57;;;;;;;21.53;20.23;;;26.70;99.90;;;;;;2613550;31;20683;-74
2023/06/21 10:16:57;;;;;;;21.23;19.83;;;26.80;99.90;;;;;;2614120;54;20416;-74
2023/06/21 10:19:29;;;;;;;21.13;19.70;;;27.40;95.50;;;;;;2612503;54;20143;-74
2023/06/21 10:25:19;;;;;;;22.10;20.50;;;27.60;88.80;;;;;;2612107;54;20424;-75
2023/06/21 10:31:11;;;;;;;20.00;18.80;;;28.60;85.20;;;;;;2613886;54;20480;-74
2023/06/21 10:43:40;;;;;;;18.20;17.20;;;27.70;78.20;;;;;;2612693;31;20927;-75
2023/06/21 10:46:14;;;;;;;17.87;16.83;;;27.50;65.40;;;;;;2613912;54;20414;-75
2023/06/21 10:48:40;;;;;;;20.83;19.43;;;27.00;73.00;;;;;;2610726;54;21726;-75
2023/06/21 10:54:28;;;;;;;18.23;17.03;;;26.70;88.30;;;;;;2612874;54;20974;-74
2023/06/21 11:00:16;;;;;;;20.87;19.57;;;26.80;91.00;;;;;;2613791;54;20394;-74
2023/06/21 11:06:24;;;;;;;20.30;19.10;;;28.20;84.60;;;;;;2613956;54;20390;-75
2023/06/21 11:12:12;;;;;;;21.37;20.07;;;27.50;73.20;;;;;;2613688;54;20407;-74
2023/06/21 11:18:02;;;;;;;22.30;20.80;;;27.40;64.60;;;;;;2610632;54;20143;-75
2023/06/21 11:23:51;;;;;;;22.87;21.17;;;28.50;55.10;;;;;;2610274;54;20402;-75
2023/06/21 11:29:40;;;;;;;20.07;18.77;;;28.40;52.00;;;;;;2612713;46;20434;-75
2023/06/21 11:35:51;;;;;;;22.37;20.70;;;28.00;57.80;;;;;;2612560;54;20363;-75
2023/06/21 11:41:45;;;;;;;19.93;18.57;;;26.90;57.90;;;;;;2613548;54;20965;-74
2023/06/21 11:50:56;;;;;;;18.07;17.13;;;28.40;47.80;;;;;;2613322;54;20367;-74
2023/06/21 11:56:44;;;;;;;18.17;17.20;;;29.00;42.30;;;;;;2612614;54;20431;-75
2023/06/21 12:02:31;;;;;;;18.87;17.87;;;27.90;40.60;;;;;;2613202;54;20157;-76
2023/06/21 12:08:22;;;;;;;19.33;18.40;;;28.00;40.80;;;;;;2613205;54;20648;-74
2023/06/21 12:14:10;;;;;;;20.23;19.03;;;28.20;36.00;;;;;;2611218;54;20463;-75
2023/06/21 12:20:06;;;;;;;19.30;18.07;;;27.60;47.20;;;;;;2611495;54;20154;-76
2023/06/21 12:32:27;;;;;;;18.93;17.97;;;28.50;35.00;;;;;;2611126;54;20399;-74
2023/06/21 12:38:16;;;;;;;19.30;18.40;;;29.20;31.40;;;;;;2611502;54;20238;-75
2023/06/21 12:44:07;;;;;;;19.00;18.13;;;30.10;27.80;;;;;;2613831;54;20538;-74
2023/06/21 12:50:02;;;;;;;19.03;18.13;;;28.70;26.00;;;;;;2613139;54;20475;-73
2023/06/21 12:55:49;;;;;;;18.97;17.97;;;29.70;34.40;;;;;;2614253;54;20390;-75
2023/06/21 13:01:38;;;;;;;19.13;17.77;;;29.00;26.80;;;;;;2614341;54;20173;-74
2023/06/21 13:07:25;;;;;;;17.83;16.87;;;29.90;20.40;;;;;;2613695;54;20364;-74
2023/06/21 13:13:13;;;;;;;19.50;18.40;;;30.10;19.80;;;;;;2614467;54;20824;-74
2023/06/21 13:19:01;;;;;;;20.10;18.90;;;29.90;19.80;;;;;;2612995;54;20610;-75
2023/06/21 13:24:48;;;;;;;20.20;19.10;;;30.20;24.00;;;;;;2615534;39;20511;-75
2023/06/21 13:30:36;;;;;;;18.83;17.83;;;29.50;19.70;;;;;;2613518;54;20134;-75
2023/06/21 13:36:24;;;;;;;20.10;19.07;;;28.70;26.90;;;;;;2614525;39;20545;-76
2023/06/21 13:42:11;;;;;;;17.30;16.50;;;29.30;16.20;;;;;;2613988;54;20652;-74
2023/06/21 13:51:22;;;;;;;18.40;17.50;;;30.40;17.40;;;;;;2614613;54;20897;-74
2023/06/21 13:57:14;;;;;;;20.20;19.10;;;30.90;18.00;;;;;;2613902;54;20355;-74
2023/06/21 14:03:02;;;;;;;21.57;20.43;;;30.40;18.30;;;;;;2614923;54;20406;-74
2023/06/21 14:08:49;;;;;;;21.87;20.57;;;29.00;17.40;;;;;;2613959;54;20206;-74
2023/06/21 14:14:39;;;;;;;18.60;17.70;;;28.90;22.00;;;;;;2614342;54;20173;-74
2023/06/21 14:17:42;;;;;;;19.60;18.50;;;28.80;18.50;;;;;;2614479;54;20411;-74
2023/06/21 14:20:09;;;;;;;21.17;19.37;;;29.70;18.40;;;;;;2613697;54;20438;-74
2023/06/21 14:25:57;;;;;;;21.97;20.87;;;29.60;14.30;;;;;;2612455;54;20371;-74
2023/06/21 14:31:45;;;;;;;21.90;20.50;;;29.20;18.50;;;;;;2614129;54;20142;-74
2023/06/21 14:37:32;;;;;;;20.33;19.23;;;29.40;17.10;;;;;;2613222;54;20138;-74
2023/06/21 14:43:20;;;;;;;22.30;20.97;;;29.20;16.90;;;;;;2613918;54;20134;-73
2023/06/21 14:46:44;;;;;;;21.50;20.40;;;29.00;17.50;;;;;;2611752;54;20435;-74
2023/06/21 14:49:11;;;;;;;20.17;19.20;;;29.60;18.00;;;;;;2613308;54;20143;-75
2023/06/21 14:54:59;;;;;;;21.37;20.27;;;29.60;12.80;;;;;;2612578;54;20399;-74
2023/06/21 15:00:46;;;;;;;20.07;19.17;;;28.70;12.40;;;;;;2614210;54;20173;-74
2023/06/21 15:06:36;;;;;;;21.90;20.50;;;28.40;15.40;;;;;;2614042;54;20141;-74
2023/06/21 15:12:24;;;;;;;20.80;19.80;;;29.80;15.30;;;;;;2611522;54;20424;-73
2023/06/21 15:18:12;;;;;;;20.30;19.30;;;29.20;13.10;;;;;;2613219;54;20165;-74
2023/06/21 15:23:59;;;;;;;21.13;20.07;;;29.60;14.90;;;;;;2609675;54;20227;-74
2023/06/21 15:29:48;;;;;;;20.00;19.00;;;29.30;16.20;;;;;;2610858;54;20655;-74
2023/06/21 15:35:36;;;;;;;19.20;18.20;;;30.30;10.80;;;;;;2611140;54;20414;-74
2023/06/21 15:41:24;;;;;;;20.07;18.90;;;30.10;10.70;;;;;;2611023;54;20165;-74
2023/06/21 15:51:15;;;;;;;20.70;19.63;;;29.40;10.70;;;;;;2611807;46;20427;-74
2023/06/21 15:57:03;;;;;;;20.10;19.10;;;30.20;9.20;;;;;;2610624;54;20422;-74
2023/06/21 16:02:50;;;;;;;19.53;18.63;;;29.80;10.30;;;;;;2613882;54;20940;-74
2023/06/21 16:08:38;;;;;;;19.77;18.20;;;30.50;10.30;;;;;;2613673;54;20247;-74
2023/06/21 16:14:25;;;;;;;19.80;18.70;;;29.60;9.20;;;;;;2614144;54;20616;-73
2023/06/21 16:20:13;;;;;;;20.80;19.70;;;28.60;13.80;;;;;;2613397;54;20130;-74
2023/06/21 16:26:01;;;;;;;19.80;18.80;;;29.60;9.10;;;;;;2611985;39;20563;-74
2023/06/21 16:31:50;;;;;;;20.13;18.73;;;29.80;8.60;;;;;;2611744;54;20402;-74
2023/06/21 16:37:38;;;;;;;20.30;19.27;;;29.30;8.20;;;;;;2613468;54;20483;-73
2023/06/21 16:43:27;;;;;;;20.77;19.67;;;28.60;12.30;;;;;;2611750;54;20390;-74
2023/06/21 16:46:42;;;;;;;21.20;20.20;;;28.20;14.40;;;;;;2613396;54;20387;-74
2023/06/21 16:49:08;;;;;;;19.83;18.93;;;28.00;15.30;;;;;;2612900;54;20432;-73
2023/06/21 16:54:56;;;;;;;20.77;19.57;;;27.60;17.60;;;;;;2614745;54;20146;-74
2023/06/21 17:00:43;;;;;;;21.23;20.27;;;28.50;15.20;;;;;;2614394;54;20150;-73
2023/06/21 17:06:32;;;;;;;19.80;18.90;;;28.90;13.20;;;;;;2614809;54;20137;-74
2023/06/21 17:12:19;;;;;;;20.20;19.20;;;29.20;14.50;;;;;;2611405;54;20130;-74
2023/06/21 17:18:07;;;;;;;20.20;19.30;;;28.40;12.00;;;;;;2612525;39;20220;-74
2023/06/21 17:23:56;;;;;;;20.53;19.53;;;27.60;15.00;;;;;;2611152;54;20483;-74
2023/06/21 17:29:46;;;;;;;20.40;19.43;;;27.30;16.30;;;;;;2611242;54;20395;-74
2023/06/21 17:35:33;;;;;;;20.00;19.00;;;27.30;17.30;;;;;;2611342;54;20503;-72
2023/06/21 17:41:21;;;;;;;20.40;19.20;;;26.90;18.60;;;;;;2611758;54;20130;-74
2023/06/21 17:51:20;;;;;;;20.73;19.70;;;27.00;18.90;;;;;;2611642;39;20786;-74
2023/06/21 17:57:08;;;;;;;18.40;17.60;;;26.70;20.10;;;;;;2612278;39;20734;-73
2023/06/21 18:02:55;;;;;;;20.47;19.07;;;26.70;20.20;;;;;;2612582;54;20411;-73
2023/06/21 18:08:43;;;;;;;18.37;17.57;;;26.50;21.20;;;;;;2612552;54;20717;-74
2023/06/21 18:14:31;;;;;;;18.60;17.60;;;26.40;23.00;;;;;;2613427;54;20170;-74
2023/06/21 18:20:18;;;;;;;18.70;17.70;;;26.50;22.60;;;;;;2613041;54;20130;-74
2023/06/21 18:26:06;;;;;;;19.80;18.37;;;26.30;23.30;;;;;;2610871;31;20664;-76
2023/06/21 18:31:54;;;;;;;17.60;16.67;;;26.30;24.60;;;;;;2610947;54;20154;-74
2023/06/21 18:37:45;;;;;;;18.00;17.00;;;26.30;24.60;;;;;;2613134;54;20178;-75
2023/06/21 18:43:33;;;;;;;17.43;16.63;;;26.20;24.00;;;;;;2609822;39;20745;-75
2023/06/21 18:46:45;;;;;;;18.93;17.83;;;26.10;24.60;;;;;;2607985;54;20532;-74
2023/06/21 18:49:11;;;;;;;17.87;17.00;;;26.10;23.40;;;;;;2609401;54;20392;-75
2023/06/21 18:54:59;;;;;;;17.60;16.80;;;25.90;24.60;;;;;;2606592;54;20145;-76
2023/06/21 19:00:46;;;;;;;17.70;16.63;;;25.80;25.10;;;;;;2614312;54;20629;-74
2023/06/21 19:06:34;;;;;;;17.60;16.80;;;25.70;26.40;;;;;;2610807;54;20499;-76
2023/06/21 19:12:23;;;;;;;18.73;17.73;;;25.50;27.70;;;;;;2609256;54;22521;-74
2023/06/21 19:18:11;;;;;;;18.50;17.63;;;25.30;28.50;;;;;;2609469;54;20391;-74
2023/06/21 19:23:59;;;;;;;18.27;17.37;;;25.20;29.80;;;;;;2609980;54;20649;-73
2023/06/21 19:29:46;;;;;;;17.70;16.70;;;25.00;29.60;;;;;;2608708;54;20146;-73
2023/06/21 19:35:34;;;;;;;18.10;17.20;;;24.80;30.20;;;;;;2610870;54;20131;-74
2023/06/21 19:41:22;;;;;;;18.50;17.60;;;24.50;32.70;;;;;;2611302;54;20150;-74
2023/06/21 19:51:12;;;;;;;19.40;18.40;;;24.20;37.10;;;;;;2613500;54;20407;-73
2023/06/21 19:57:00;;;;;;;24.43;22.93;;;23.90;42.40;;;;;;2614670;39;20748;-74
2023/06/21 20:02:49;;;;;;;24.97;23.40;;;23.70;50.20;;;;;;2611712;54;20134;-74
2023/06/21 20:08:36;;;;;;;18.10;17.30;;;23.50;54.60;;;;;;2612042;39;20882;-74
2023/06/21 20:14:24;;;;;;;18.07;17.27;;;23.50;55.00;;;;;;2612804;54;20247;-74
2023/06/21 20:17:27;;;;;;;17.77;16.67;;;23.40;54.80;;;;;;2610573;54;20417;-73
2023/06/21 20:19:52;;;;;;;17.40;16.60;;;23.40;55.70;;;;;;2611030;54;20238;-73
2023/06/21 20:25:40;;;;;;;17.87;17.07;;;23.10;62.00;;;;;;2612461;54;20180;-73
2023/06/21 20:31:28;;;;;;;18.60;17.53;;;22.90;72.50;;;;;;2614692;54;20230;-74
2023/06/21 20:37:16;;;;;;;17.60;16.40;;;22.90;84.10;;;;;;2614024;54;20122;-74
2023/06/21 20:43:07;;;;;;;17.30;16.40;;;22.80;92.60;;;;;;2614695;54;20757;-74
2023/06/21 20:48:58;;;;;;;17.70;16.67;;;23.00;82.40;;;;;;2614591;54;20422;-73
2023/06/21 20:54:45;;;;;;;18.20;17.30;;;23.10;79.50;;;;;;2614409;54;20379;-74
2023/06/21 21:00:34;;;;;;;17.93;17.10;;;23.10;74.20;;;;;;2615196;54;20150;-74
2023/06/21 21:06:21;;;;;;;18.77;17.67;;;23.10;67.30;;;;;;2614901;54;20178;-73
2023/06/21 21:12:09;;;;;;;18.30;17.23;;;23.00;63.40;;;;;;2614462;54;20255;-73
2023/06/21 21:17:58;;;;;;;18.37;17.27;;;22.90;61.50;;;;;;2612965;54;20154;-74
2023/06/21 21:23:46;;;;;;;18.23;16.93;;;22.90;70.80;;;;;;2609425;39;20575;-74
2023/06/21 21:29:33;;;;;;;18.27;16.90;;;22.80;69.20;;;;;;2608422;54;20126;-74
2023/06/21 21:35:21;;;;;;;16.70;15.90;;;22.50;77.60;;;;;;2608517;54;20127;-74
2023/06/21 21:41:09;;;;;;;16.50;15.80;;;22.30;86.40;;;;;;2609314;39;20535;-73
2023/06/21 21:51:15;;;;;;;16.90;16.00;;;22.10;99.90;;;;;;2611432;54;20426;-74
2023/06/21 21:57:03;;;;;;;16.70;15.83;;;22.00;99.90;;;;;;2608798;54;20386;-74
2023/06/21 22:02:52;;;;;;;16.10;15.20;;;22.10;99.90;;;;;;2609662;54;20154;-74
2023/06/21 22:08:40;;;;;;;16.40;15.60;;;22.00;99.90;;;;;;2611278;54;20415;-73
2023/06/21 22:14:32;;;;;;;16.80;15.90;;;21.90;99.90;;;;;;2610250;31;20686;-74
2023/06/21 22:20:20;;;;;;;17.07;15.97;;;21.90;99.90;;;;;;2610748;54;20391;-74
2023/06/21 22:26:08;;;;;;;17.03;15.80;;;21.90;99.90;;;;;;2609838;39;20789;-74
2023/06/21 22:31:56;;;;;;;15.70;14.90;;;21.80;99.90;;;;;;2611744;54;20138;-74
2023/06/21 22:37:44;;;;;;;15.60;14.90;;;21.70;99.90;;;;;;2612397;54;20598;-74
2023/06/21 22:43:32;;;;;;;16.80;15.80;;;21.50;99.90;;;;;;2609135;54;20146;-74
2023/06/21 22:46:46;;;;;;;16.60;15.60;;;21.50;99.90;;;;;;2610998;54;20416;-73
2023/06/21 22:49:12;;;;;;;16.47;15.70;;;21.60;99.90;;;;;;2611418;39;20731;-74
2023/06/21 22:55:00;;;;;;;17.53;15.90;;;21.70;99.90;;;;;;2610982;54;20207;-73
2023/06/21 23:00:48;;;;;;;15.50;14.73;;;21.60;99.90;;;;;;2613188;54;20150;-74
2023/06/21 23:06:38;;;;;;;15.97;15.17;;;21.60;99.90;;;;;;2613094;54;20143;-73
2023/06/21 23:12:26;;;;;;;15.97;15.27;;;21.50;99.90;;;;;;2608788;54;21047;-74
2023/06/21 23:18:13;;;;;;;16.20;15.40;;;21.50;99.90;;;;;;2611224;54;20133;-73
2023/06/21 23:24:04;;;;;;;16.40;15.60;;;21.50;99.90;;;;;;2611586;54;20134;-74
2023/06/21 23:29:51;;;;;;;15.50;14.57;;;21.50;99.90;;;;;;2613989;54;20391;-74
2023/06/21 23:35:39;;;;;;;16.63;15.80;;;21.30;99.90;;;;;;2614286;54;20126;-74
2023/06/21 23:41:28;;;;;;;20.67;19.37;;;21.40;99.90;;;;;;2612700;54;20386;-73
2023/06/21 23:51:18;;;;;;;19.13;17.87;;;21.50;99.90;;;;;;2611236;54;20386;-73
2023/06/21 23:57:07;;;;;;;19.40;18.30;;;21.40;99.90;;;;;;2612553;54;20391;-73
